Time;durP1;ratioP1;P1;durP2;ratioP2;P2;SDS_P1;SDS_P2;PMS_P1;PMS_P2;Temp;Humidity;BMP_temperature;BMP_pressure;BME280_temperature;BME280_humidity;BME280_pressure;Samples;Min_cycle;Max_cycle;Signal;HPM_P1;HPM_P2
2022/03/21 00:00:55;;;;;;;65.57;43.38;;;6.00;99.90;;;;;;5088225;28;20044;-61
2022/03/21 00:03:24;;;;;;;68.18;44.28;;;6.00;99.90;;;;;;5099701;28;20083;-61
2022/03/21 00:05:50;;;;;;;64.03;41.70;;;6.10;99.90;;;;;;5084667;28;20574;-61
2022/03/21 00:08:18;;;;;;;64.78;43.00;;;6.10;99.90;;;;;;5097128;28;20040;-62
2022/03/21 00:10:45;;;;;;;61.15;41.83;;;6.10;99.90;;;;;;5091972;28;20139;-61
2022/03/21 00:13:15;;;;;;;65.45;40.03;;;6.10;99.90;;;;;;5104552;28;20048;-61
2022/03/21 00:15:45;;;;;;;60.05;40.90;;;6.20;99.90;;;;;;5102186;28;20072;-61
2022/03/21 00:18:14;;;;;;;60.08;41.60;;;6.20;99.90;;;;;;5108238;28;20051;-61
2022/03/21 00:20:41;;;;;;;62.47;40.80;;;6.20;99.90;;;;;;5106417;28;20527;-62
2022/03/21 00:23:07;;;;;;;58.42;38.65;;;6.20;99.90;;;;;;5100540;28;20033;-61
2022/03/21 00:25:33;;;;;;;61.53;40.28;;;6.20;99.90;;;;;;5106432;28;20051;-61
2022/03/21 00:27:59;;;;;;;57.72;37.30;;;6.20;99.90;;;;;;5105039;28;20070;-61
2022/03/21 00:30:26;;;;;;;60.28;39.40;;;6.20;99.90;;;;;;5115629;28;20087;-62
2022/03/21 00:32:51;;;;;;;58.28;37.95;;;6.20;99.90;;;;;;5104364;28;20495;-61
2022/03/21 00:35:17;;;;;;;56.30;37.33;;;6.20;99.90;;;;;;5105082;28;20051;-61
2022/03/21 00:37:45;;;;;;;58.15;38.50;;;6.10;99.90;;;;;;5104561;28;20051;-61
2022/03/21 00:40:11;;;;;;;;;;;6.00;99.90;;;;;;5102805;28;20104;-61
2022/03/21 00:42:39;;;;;;;58.63;37.72;;;6.10;99.90;;;;;;5104639;28;20433;-61
2022/03/21 00:45:07;;;;;;;53.40;34.92;;;6.10;99.90;;;;;;5104958;28;20327;-62
2022/03/21 00:47:32;;;;;;;;;;;6.00;99.90;;;;;;5105161;28;20360;-62
2022/03/21 00:49:58;;;;;;;53.42;34.58;;;6.00;99.90;;;;;;5089526;28;20165;-60
2022/03/21 00:52:24;;;;;;;51.55;34.47;;;6.10;99.90;;;;;;5084084;28;20044;-61
2022/03/21 00:54:50;;;;;;;51.35;34.15;;;6.00;99.90;;;;;;5084231;28;20048;-60
2022/03/21 00:57:15;;;;;;;51.22;32.92;;;6.00;99.90;;;;;;5084041;28;20055;-60
2022/03/21 00:59:41;;;;;;;53.30;34.72;;;6.00;99.90;;;;;;5095676;28;20044;-59
2022/03/21 01:02:08;;;;;;;55.03;33.17;;;5.90;99.90;;;;;;5104477;28;20088;-62
2022/03/21 01:04:35;;;;;;;48.78;31.73;;;5.90;99.90;;;;;;5105034;28;20051;-61
2022/03/21 01:07:02;;;;;;;47.83;31.90;;;5.90;99.90;;;;;;5104054;28;20035;-62
2022/03/21 01:09:27;;;;;;;42.35;28.88;;;5.90;99.90;;;;;;5102606;28;20099;-61
2022/03/21 01:11:53;;;;;;;41.28;29.95;;;5.90;99.90;;;;;;5104259;28;20051;-61
2022/03/21 01:14:19;;;;;;;42.83;28.60;;;5.90;99.90;;;;;;5104846;28;20047;-61
2022/03/21 01:16:46;;;;;;;48.00;29.60;;;6.00;99.90;;;;;;5104248;28;20052;-61
2022/03/21 01:19:12;;;;;;;46.28;29.10;;;5.90;99.90;;;;;;5100410;28;20450;-62
2022/03/21 01:21:38;;;;;;;45.30;28.85;;;5.80;99.90;;;;;;5103410;28;20036;-61
2022/03/21 01:24:04;;;;;;;46.72;27.23;;;5.80;99.90;;;;;;5104470;28;20040;-61
2022/03/21 01:26:30;;;;;;;45.40;26.80;;;5.80;99.90;;;;;;5104174;28;20036;-62
2022/03/21 01:28:57;;;;;;;47.35;28.67;;;5.90;99.90;;;;;;5095418;28;20040;-61
2022/03/21 01:31:23;;;;;;;42.90;26.48;;;5.80;99.90;;;;;;5083909;28;20041;-61
2022/03/21 01:33:49;;;;;;;49.67;28.35;;;5.80;99.90;;;;;;5084427;28;20044;-61
2022/03/21 01:36:14;;;;;;;42.65;26.98;;;5.80;99.90;;;;;;5083344;28;20047;-61
2022/03/21 01:38:40;;;;;;;42.05;27.38;;;5.80;99.90;;;;;;5089642;28;20618;-61
2022/03/21 01:41:06;;;;;;;43.50;26.10;;;5.80;99.90;;;;;;5103837;28;20131;-61
2022/03/21 01:43:31;;;;;;;44.90;26.55;;;5.80;99.90;;;;;;5104230;28;20067;-62
2022/03/21 01:45:57;;;;;;;41.53;25.70;;;5.60;99.90;;;;;;5104357;28;20056;-62
2022/03/21 01:48:22;;;;;;;35.38;24.02;;;5.60;99.90;;;;;;5098252;28;20157;-62
2022/03/21 01:50:48;;;;;;;38.45;26.10;;;5.50;99.90;;;;;;5083420;28;20045;-60
2022/03/21 01:55:59;;;;;;;40.35;24.98;;;5.40;99.90;;;;;;5083660;28;20056;-63
2022/03/21 01:58:25;;;;;;;43.00;25.23;;;5.30;99.90;;;;;;5089404;28;20393;-61
2022/03/21 02:00:52;;;;;;;41.88;25.73;;;5.40;99.90;;;;;;5102270;28;20057;-62
2022/03/21 02:03:21;;;;;;;38.60;25.63;;;5.30;99.90;;;;;;5104424;28;20516;-61
2022/03/21 02:05:47;;;;;;;38.47;25.17;;;5.20;99.90;;;;;;5103778;28;20044;-61
2022/03/21 02:08:14;;;;;;;45.50;26.50;;;5.30;99.90;;;;;;5085872;28;20076;-62
2022/03/21 02:10:43;;;;;;;43.78;26.15;;;5.10;99.90;;;;;;5083804;28;20056;-61
2022/03/21 02:13:09;;;;;;;43.53;25.85;;;5.10;99.90;;;;;;5083514;28;20033;-61
2022/03/21 02:15:36;;;;;;;41.15;25.52;;;5.10;99.90;;;;;;5084156;28;20044;-61
2022/03/21 02:18:03;;;;;;;46.35;27.73;;;5.00;99.90;;;;;;5096567;28;20050;-62
2022/03/21 02:20:32;;;;;;;42.75;25.48;;;5.00;99.90;;;;;;5103943;28;20048;-62
2022/03/21 02:23:07;;;;;;;45.58;26.48;;;4.90;99.90;;;;;;5102806;28;20068;-61
2022/03/21 02:25:35;;;;;;;42.50;26.95;;;4.80;99.90;;;;;;5105519;28;20067;-61
2022/03/21 02:28:03;;;;;;;50.47;27.30;;;4.80;99.90;;;;;;5091846;28;20045;-62
2022/03/21 02:30:32;;;;;;;45.88;28.50;;;4.80;99.90;;;;;;5086951;28;20059;-61
2022/03/21 02:33:01;;;;;;;46.40;26.38;;;4.80;99.90;;;;;;5087223;28;20040;-61
2022/03/21 02:35:29;;;;;;;46.50;27.05;;;4.80;99.90;;;;;;5086953;28;20055;-62
2022/03/21 02:37:55;;;;;;;;;;;4.70;99.90;;;;;;5100794;28;20048;-62
2022/03/21 02:40:21;;;;;;;45.75;28.00;;;4.70;99.90;;;;;;5105892;28;19919;-61
2022/03/21 02:42:47;;;;;;;48.03;30.55;;;4.70;99.90;;;;;;5106828;28;20054;-63
2022/03/21 02:45:13;;;;;;;48.42;30.15;;;4.70;99.90;;;;;;5106932;28;20096;-60
2022/03/21 02:47:38;;;;;;;48.88;28.52;;;4.70;99.90;;;;;;5095104;28;20045;-62
2022/03/21 02:50:08;;;;;;;47.47;26.90;;;4.60;99.90;;;;;;5087311;28;20134;-61
2022/03/21 02:52:36;;;;;;;43.95;26.52;;;4.60;99.90;;;;;;5085642;28;20041;-61
2022/03/21 02:55:02;;;;;;;45.40;26.35;;;4.60;99.90;;;;;;5086378;28;20045;-61
2022/03/21 02:57:31;;;;;;;50.67;28.00;;;4.50;99.90;;;;;;5086683;28;20048;-61
2022/03/21 02:59:57;;;;;;;42.83;26.52;;;4.30;99.90;;;;;;5086189;28;20067;-62
2022/03/21 03:02:23;;;;;;;44.38;28.70;;;4.30;99.90;;;;;;5086394;28;20041;-61
2022/03/21 03:04:48;;;;;;;48.42;27.30;;;4.30;99.90;;;;;;5085437;28;20080;-61
2022/03/21 03:07:14;;;;;;;48.83;26.52;;;4.30;99.90;;;;;;5085919;28;20039;-61
2022/03/21 03:09:40;;;;;;;45.90;26.55;;;4.40;99.90;;;;;;5103824;28;20173;-61
2022/03/21 03:12:06;;;;;;;40.60;27.17;;;4.30;99.90;;;;;;5106367;28;20040;-61
2022/03/21 03:14:32;;;;;;;51.13;28.95;;;4.30;99.90;;;;;;5106678;28;20055;-62
2022/03/21 03:16:57;;;;;;;53.42;28.67;;;4.30;99.90;;;;;;5105415;28;20044;-62
2022/03/21 03:19:23;;;;;;;48.78;27.83;;;4.20;99.90;;;;;;5104657;28;20089;-62
2022/03/21 03:21:50;;;;;;;49.45;27.25;;;4.20;99.90;;;;;;5105242;28;20051;-62
2022/03/21 03:24:19;;;;;;;52.30;28.83;;;4.10;99.90;;;;;;5106200;28;20040;-61
2022/03/21 03:26:45;;;;;;;41.85;26.70;;;4.10;99.90;;;;;;5104327;28;20092;-61
2022/03/21 03:29:10;;;;;;;48.55;26.52;;;4.10;99.90;;;;;;5105722;28;20080;-61
2022/03/21 03:31:36;;;;;;;41.25;25.50;;;4.20;99.90;;;;;;5105801;28;20040;-62
2022/03/21 03:34:03;;;;;;;44.40;25.30;;;4.20;99.90;;;;;;5105900;28;20072;-61
2022/03/21 03:36:29;;;;;;;44.45;25.15;;;4.10;99.90;;;;;;5103052;28;20055;-62
2022/03/21 03:38:55;;;;;;;41.88;24.63;;;4.20;99.90;;;;;;5085937;28;20048;-62
2022/03/21 03:41:21;;;;;;;43.08;25.52;;;4.20;99.90;;;;;;5085444;28;20054;-62
2022/03/21 03:43:50;;;;;;;45.80;26.38;;;4.10;99.90;;;;;;5085659;28;20047;-61
2022/03/21 03:46:17;;;;;;;40.45;25.48;;;4.00;99.90;;;;;;5085628;28;20044;-62
2022/03/21 03:48:43;;;;;;;39.40;24.10;;;4.20;99.90;;;;;;5085375;28;20052;-61
2022/03/21 03:51:11;;;;;;;37.22;23.45;;;4.20;99.90;;;;;;5084571;28;20056;-61
2022/03/21 03:53:37;;;;;;;41.58;23.15;;;4.10;99.90;;;;;;5085168;28;20679;-62
2022/03/21 03:56:03;;;;;;;38.20;24.27;;;4.10;99.90;;;;;;5099420;28;20416;-61
2022/03/21 03:58:28;;;;;;;42.00;24.88;;;4.10;99.90;;;;;;5105713;28;20058;-62
2022/03/21 04:00:54;;;;;;;38.28;24.13;;;4.10;99.90;;;;;;5105537;28;20105;-62
2022/03/21 04:06:04;;;;;;;37.63;23.58;;;4.20;99.90;;;;;;5103632;28;20058;-62
2022/03/21 04:08:30;;;;;;;37.35;24.50;;;4.10;99.90;;;;;;5105385;28;20072;-61
2022/03/21 04:10:56;;;;;;;39.72;23.67;;;4.00;99.90;;;;;;5104952;28;20051;-61
2022/03/21 04:13:21;;;;;;;40.03;23.45;;;4.10;99.90;;;;;;5105558;28;20051;-62
2022/03/21 04:15:47;;;;;;;41.15;22.55;;;4.10;99.90;;;;;;5103131;28;20048;-61
2022/03/21 04:18:13;;;;;;;41.25;23.42;;;4.00;99.90;;;;;;5105151;28;20114;-62
2022/03/21 04:20:40;;;;;;;47.10;25.02;;;3.90;99.90;;;;;;5104915;28;20055;-61
2022/03/21 04:23:07;;;;;;;46.38;25.55;;;3.80;99.90;;;;;;5104014;28;20452;-62
2022/03/21 04:25:33;;;;;;;42.17;24.43;;;3.90;99.90;;;;;;5096222;28;20055;-62
2022/03/21 04:27:59;;;;;;;42.97;25.05;;;3.70;99.90;;;;;;5084643;28;20036;-62
2022/03/21 04:30:24;;;;;;;42.78;24.65;;;3.80;99.90;;;;;;5084239;28;20528;-61
2022/03/21 04:32:50;;;;;;;41.35;22.55;;;3.80;99.90;;;;;;5084408;28;20041;-62
2022/03/21 04:35:16;;;;;;;41.05;25.15;;;3.60;99.90;;;;;;5084847;28;20040;-61
2022/03/21 04:37:42;;;;;;;42.20;25.42;;;3.70;99.90;;;;;;5083669;28;20044;-61
2022/03/21 04:40:09;;;;;;;48.50;26.30;;;3.70;99.90;;;;;;5084843;28;20075;-62
2022/03/21 04:42:36;;;;;;;48.20;26.52;;;3.70;99.90;;;;;;5084094;28;20108;-62
2022/03/21 04:45:04;;;;;;;47.63;26.70;;;3.70;99.90;;;;;;5084548;28;20051;-61
2022/03/21 04:47:30;;;;;;;44.08;25.92;;;3.60;99.90;;;;;;5084290;28;20036;-62
2022/03/21 04:49:56;;;;;;;44.92;26.02;;;3.60;99.90;;;;;;5104411;28;20036;-61
2022/03/21 04:52:22;;;;;;;44.40;27.17;;;3.60;99.90;;;;;;5103427;28;20062;-61
2022/03/21 04:54:48;;;;;;;46.42;26.33;;;3.60;99.90;;;;;;5103876;28;20048;-61
2022/03/21 04:57:14;;;;;;;44.28;26.77;;;3.60;99.90;;;;;;5104308;28;20052;-62
2022/03/21 04:59:40;;;;;;;49.70;27.00;;;3.50;99.90;;;;;;5104224;28;20094;-62
2022/03/21 05:02:06;;;;;;;51.42;28.65;;;3.50;99.90;;;;;;5104257;28;20074;-62
2022/03/21 05:04:33;;;;;;;50.70;27.20;;;3.60;99.90;;;;;;5102770;28;20095;-61
2022/03/21 05:06:59;;;;;;;48.65;26.85;;;3.60;99.90;;;;;;5103513;28;20488;-62
2022/03/21 05:09:24;;;;;;;48.97;26.92;;;3.60;99.90;;;;;;5104536;28;20048;-62
2022/03/21 05:11:50;;;;;;;46.80;26.90;;;3.50;99.90;;;;;;5103990;28;20043;-61
2022/03/21 05:14:17;;;;;;;43.70;25.98;;;3.40;99.90;;;;;;5101659;28;20064;-61
2022/03/21 05:16:43;;;;;;;51.55;29.17;;;3.40;99.90;;;;;;5088067;28;20044;-61
2022/03/21 05:19:08;;;;;;;54.10;28.90;;;3.20;99.90;;;;;;5092646;28;20098;-61
2022/03/21 05:21:34;;;;;;;50.70;30.92;;;3.30;99.90;;;;;;5092187;28;20188;-61
2022/03/21 05:32:13;;;;;;;49.63;28.65;;;3.20;99.90;;;;;;5095035;28;20135;-63
2022/03/21 05:37:23;;;;;;;54.05;30.33;;;3.20;99.90;;;;;;5083204;28;20064;-62
2022/03/21 05:40:35;;;;;;;55.75;31.30;;;3.10;99.90;;;;;;5103120;28;20079;-62
2022/03/21 05:42:34;;;;;;;54.33;31.05;;;3.00;99.90;;;;;;5085178;28;20074;-62
2022/03/21 05:45:00;;;;;;;54.53;31.90;;;2.90;99.90;;;;;;5089882;28;20130;-62
2022/03/21 05:47:26;;;;;;;58.33;31.70;;;3.00;99.90;;;;;;5088624;28;20068;-61
2022/03/21 05:49:51;;;;;;;56.28;32.17;;;3.10;99.90;;;;;;5096523;28;20045;-62
2022/03/21 05:52:17;;;;;;;52.47;31.23;;;3.10;99.90;;;;;;5096456;28;20032;-61
2022/03/21 05:54:43;;;;;;;56.55;30.88;;;2.90;99.90;;;;;;5085390;28;20726;-61
2022/03/21 05:57:09;;;;;;;55.97;28.90;;;3.00;99.90;;;;;;5103214;28;20053;-61
2022/03/21 06:02:19;;;;;;;59.60;30.63;;;2.90;99.90;;;;;;5107528;28;20500;-61
2022/03/21 06:04:45;;;;;;;64.70;35.85;;;2.70;99.90;;;;;;5106494;28;20043;-62
2022/03/21 06:07:11;;;;;;;64.75;32.92;;;2.70;99.90;;;;;;5106439;28;20123;-62
2022/03/21 06:09:37;;;;;;;56.47;34.03;;;2.70;99.90;;;;;;5093269;28;20052;-62
2022/03/21 06:12:03;;;;;;;60.45;32.92;;;2.90;99.90;;;;;;5086916;28;20056;-62
2022/03/21 06:14:29;;;;;;;56.78;31.27;;;2.90;99.90;;;;;;5102527;28;20072;-62
2022/03/21 06:16:55;;;;;;;62.00;31.70;;;2.90;99.90;;;;;;5086972;28;20052;-62
2022/03/21 06:19:21;;;;;;;59.80;31.88;;;2.90;99.90;;;;;;5087781;28;20075;-63
2022/03/21 06:21:47;;;;;;;65.75;34.13;;;2.90;99.90;;;;;;5085744;28;20044;-62
2022/03/21 06:24:13;;;;;;;55.42;31.60;;;3.20;99.90;;;;;;5086597;28;20055;-63
2022/03/21 06:26:42;;;;;;;61.38;31.98;;;3.20;99.90;;;;;;5087922;28;20040;-63
2022/03/21 06:29:08;;;;;;;55.33;33.60;;;3.10;99.90;;;;;;5105178;28;20081;-62
2022/03/21 06:31:34;;;;;;;60.80;33.15;;;3.30;99.90;;;;;;5106906;28;20050;-62
2022/03/21 06:34:00;;;;;;;61.05;32.65;;;3.40;99.90;;;;;;5107002;28;20099;-62
2022/03/21 06:36:25;;;;;;;53.25;30.90;;;3.40;99.90;;;;;;5105918;28;20051;-61
2022/03/21 06:38:51;;;;;;;47.83;30.02;;;3.50;99.90;;;;;;5087491;28;20068;-62
2022/03/21 06:41:17;;;;;;;51.42;32.85;;;3.50;99.90;;;;;;5086302;28;20049;-61
2022/03/21 06:43:42;;;;;;;49.38;31.00;;;3.60;99.90;;;;;;5086792;28;20036;-61
2022/03/21 06:46:08;;;;;;;53.15;31.30;;;3.60;99.90;;;;;;5085982;28;20044;-62
2022/03/21 06:48:35;;;;;;;53.13;30.35;;;3.80;99.90;;;;;;5102512;28;20078;-62
2022/03/21 06:51:01;;;;;;;51.60;30.10;;;3.80;99.90;;;;;;5105940;28;20048;-63
2022/03/21 06:53:26;;;;;;;52.55;30.02;;;3.80;99.90;;;;;;5106263;28;20090;-62
2022/03/21 06:55:52;;;;;;;52.70;31.40;;;3.80;99.90;;;;;;5106260;28;20534;-61
2022/03/21 06:58:18;;;;;;;48.72;29.52;;;3.80;99.90;;;;;;5105031;28;20047;-62
2022/03/21 07:00:46;;;;;;;50.40;29.52;;;3.80;99.90;;;;;;5106240;28;20040;-62
2022/03/21 07:03:17;;;;;;;44.17;29.58;;;3.90;99.90;;;;;;5106283;28;20055;-62
2022/03/21 07:05:43;;;;;;;50.97;31.63;;;4.00;99.90;;;;;;5104093;28;20154;-61
2022/03/21 07:08:09;;;;;;;54.85;30.17;;;4.10;99.90;;;;;;5105559;28;20411;-61
2022/03/21 07:10:40;;;;;;;43.78;29.52;;;4.20;99.90;;;;;;5105863;28;20112;-62
2022/03/21 07:13:05;;;;;;;48.30;31.02;;;4.30;99.90;;;;;;5106407;28;20040;-61
2022/03/21 07:15:32;;;;;;;48.45;30.58;;;4.50;99.90;;;;;;5094959;28;20036;-61
2022/03/21 07:17:58;;;;;;;56.22;31.33;;;4.60;99.90;;;;;;5096302;28;20048;-62
2022/03/21 07:20:25;;;;;;;47.10;30.92;;;4.90;99.90;;;;;;5106101;28;20113;-62
2022/03/21 07:22:55;;;;;;;47.08;30.98;;;5.30;99.90;;;;;;5102589;28;20111;-61
2022/03/21 07:25:21;;;;;;;45.67;28.10;;;5.40;99.90;;;;;;5085293;28;20092;-60
2022/03/21 07:27:47;;;;;;;46.15;28.85;;;5.40;99.90;;;;;;5085521;28;20049;-62
2022/03/21 07:30:14;;;;;;;51.90;29.95;;;5.50;99.90;;;;;;5089104;28;20067;-61
2022/03/21 07:32:41;;;;;;;50.80;31.75;;;5.50;99.90;;;;;;5098992;28;20059;-61
2022/03/21 07:35:07;;;;;;;47.83;30.23;;;5.60;99.90;;;;;;5094350;28;20050;-62
2022/03/21 07:37:46;;;;;;;45.15;29.20;;;5.70;99.90;;;;;;5093844;28;20028;-62
2022/03/21 07:40:12;;;;;;;;;;;5.80;99.90;;;;;;5105903;28;20070;-61
2022/03/21 07:42:39;;;;;;;44.90;28.42;;;6.00;99.90;;;;;;5093825;28;19921;-62
2022/03/21 07:47:51;;;;;;;44.40;26.80;;;6.20;99.90;;;;;;5086522;28;20101;-62
2022/03/21 07:50:18;;;;;;;40.20;25.35;;;6.40;99.90;;;;;;5104813;28;20103;-62
2022/03/21 07:52:43;;;;;;;42.40;24.38;;;6.50;99.90;;;;;;5103322;28;20496;-62
2022/03/21 07:55:09;;;;;;;47.72;24.45;;;6.70;99.90;;;;;;5100469;28;20082;-62
2022/03/21 07:57:35;;;;;;;40.00;23.85;;;6.80;99.90;;;;;;5097583;28;20090;-63
2022/03/21 08:00:00;;;;;;;33.92;22.38;;;6.90;99.90;;;;;;5101477;28;20040;-62
2022/03/21 08:02:27;;;;;;;32.08;22.27;;;7.20;99.90;;;;;;5103643;28;20040;-62
2022/03/21 08:04:53;;;;;;;37.30;22.05;;;7.30;99.90;;;;;;5104768;28;20185;-62
2022/03/21 08:07:18;;;;;;;37.58;23.10;;;7.40;99.90;;;;;;5104267;28;20292;-63
2022/03/21 08:09:46;;;;;;;31.33;21.73;;;7.60;99.90;;;;;;5104680;28;20135;-63
2022/03/21 08:12:12;;;;;;;36.90;22.42;;;7.70;99.90;;;;;;5095607;28;20121;-63
2022/03/21 08:14:38;;;;;;;34.35;20.42;;;7.90;99.90;;;;;;5090379;28;20480;-63
2022/03/21 08:17:04;;;;;;;34.78;21.52;;;8.00;99.90;;;;;;5107563;28;20522;-63
2022/03/21 08:19:30;;;;;;;31.17;19.25;;;8.10;99.90;;;;;;5103701;28;21029;-62
2022/03/21 08:21:56;;;;;;;39.90;21.02;;;8.30;99.90;;;;;;5093791;28;20067;-62
2022/03/21 08:24:22;;;;;;;34.47;19.48;;;8.40;99.90;;;;;;5103226;28;20046;-61
2022/03/21 08:26:49;;;;;;;32.42;20.88;;;8.60;99.90;;;;;;5105694;28;20044;-61
2022/03/21 08:29:15;;;;;;;31.38;19.08;;;8.70;99.90;;;;;;5103675;28;20049;-61
2022/03/21 08:31:41;;;;;;;30.35;18.67;;;8.90;99.90;;;;;;5112393;28;20490;-62
2022/03/21 08:34:07;;;;;;;30.15;19.02;;;9.10;99.90;;;;;;5109125;28;20035;-62
2022/03/21 08:36:32;;;;;;;30.05;18.08;;;9.30;99.90;;;;;;5094399;28;20047;-63
2022/03/21 08:38:59;;;;;;;29.42;18.05;;;9.40;99.90;;;;;;5100740;28;20040;-62
2022/03/21 08:41:25;;;;;;;29.40;18.42;;;9.60;99.90;;;;;;5102000;28;20081;-62
2022/03/21 08:43:51;;;;;;;32.28;17.65;;;9.80;99.90;;;;;;5103737;28;20056;-62
2022/03/21 08:46:16;;;;;;;30.27;19.40;;;9.90;99.90;;;;;;5115605;28;20036;-63
2022/03/21 08:51:27;;;;;;;30.13;17.63;;;10.20;99.90;;;;;;5101043;28;20055;-62
2022/03/21 08:53:53;;;;;;;31.38;18.83;;;10.40;99.90;;;;;;5100235;28;20127;-64
2022/03/21 08:56:19;;;;;;;26.00;17.98;;;10.50;99.90;;;;;;5111464;28;20478;-64
2022/03/21 08:58:44;;;;;;;27.77;17.23;;;10.60;99.90;;;;;;5112263;28;20508;-64
2022/03/21 09:01:10;;;;;;;34.10;19.33;;;10.80;99.90;;;;;;5124297;28;20606;-64
2022/03/21 09:03:36;;;;;;;28.83;17.42;;;10.80;99.90;;;;;;5103391;28;20136;-64
2022/03/21 09:06:02;;;;;;;26.77;17.25;;;11.00;99.90;;;;;;5103267;28;20038;-63
2022/03/21 09:08:27;;;;;;;27.63;17.67;;;11.10;99.90;;;;;;5103490;28;20056;-63
2022/03/21 09:10:53;;;;;;;32.00;18.92;;;11.20;99.90;;;;;;5104024;28;20492;-63
2022/03/21 09:13:19;;;;;;;28.10;19.48;;;11.40;99.90;;;;;;5103577;28;20040;-64
2022/03/21 09:15:45;;;;;;;28.95;17.83;;;11.50;99.90;;;;;;5103711;28;20048;-63
2022/03/21 09:18:11;;;;;;;28.77;18.35;;;11.60;99.90;;;;;;5104082;28;20482;-63
2022/03/21 09:20:37;;;;;;;25.38;15.95;;;11.70;99.90;;;;;;5098967;28;20047;-64
2022/03/21 09:23:04;;;;;;;26.65;17.52;;;11.80;99.90;;;;;;5099749;28;20048;-64
2022/03/21 09:25:29;;;;;;;25.92;17.77;;;11.80;99.90;;;;;;5088556;28;20051;-64
2022/03/21 09:27:55;;;;;;;26.50;17.85;;;11.90;99.90;;;;;;5103992;28;20040;-64
2022/03/21 09:30:21;;;;;;;25.17;15.88;;;12.00;99.90;;;;;;5103482;28;20412;-63
2022/03/21 09:32:47;;;;;;;26.92;16.90;;;11.90;99.30;;;;;;5103651;28;20078;-64
2022/03/21 09:35:13;;;;;;;30.73;16.85;;;12.00;99.90;;;;;;5104785;28;20086;-64
2022/03/21 09:37:39;;;;;;;29.17;17.02;;;12.10;99.70;;;;;;5098498;28;20071;-64
2022/03/21 09:40:06;;;;;;;28.48;15.73;;;12.10;98.10;;;;;;5107912;28;20048;-64
2022/03/21 09:42:34;;;;;;;25.55;15.38;;;12.20;99.60;;;;;;5106836;28;20496;-64
2022/03/21 09:45:00;;;;;;;27.77;15.82;;;12.20;94.90;;;;;;5108407;28;20071;-63
2022/03/21 09:50:13;;;;;;;28.75;16.25;;;12.20;93.10;;;;;;5105467;28;20138;-64
2022/03/21 09:52:39;;;;;;;26.30;15.88;;;12.20;91.10;;;;;;5105475;28;20036;-64
2022/03/21 09:55:07;;;;;;;25.65;16.33;;;12.20;93.00;;;;;;5107540;28;20131;-65
2022/03/21 09:57:33;;;;;;;;;;;12.40;95.20;;;;;;5108228;28;20055;-66
2022/03/21 09:59:59;;;;;;;26.55;18.15;;;12.40;93.20;;;;;;5106515;28;19920;-67
2022/03/21 10:02:25;;;;;;;26.38;16.58;;;12.30;90.70;;;;;;5107708;28;20462;-68
2022/03/21 10:04:52;;;;;;;26.85;15.73;;;12.20;86.80;;;;;;5105141;28;20048;-68
2022/03/21 10:07:25;;;;;;;26.13;15.85;;;12.30;87.30;;;;;;5104844;28;20039;-69
2022/03/21 10:10:20;;;;;;;23.88;15.60;;;12.20;77.50;;;;;;5099466;28;20040;-68
2022/03/21 10:12:46;;;;;;;23.63;15.75;;;12.30;80.30;;;;;;5097916;28;20079;-66
2022/03/21 10:15:12;;;;;;;21.95;15.98;;;12.30;79.90;;;;;;5106968;28;20040;-67
2022/03/21 10:17:38;;;;;;;22.95;14.27;;;12.50;73.50;;;;;;5096243;28;20066;-67
2022/03/21 10:20:08;;;;;;;25.88;14.82;;;12.50;66.50;;;;;;5086833;28;20040;-68
2022/03/21 10:22:43;;;;;;;22.88;14.35;;;12.50;62.40;;;;;;5085669;28;20131;-65
2022/03/21 10:25:15;;;;;;;24.48;15.48;;;12.50;55.40;;;;;;5086624;28;20037;-68
2022/03/21 10:27:44;;;;;;;22.95;14.85;;;12.40;59.00;;;;;;5087645;28;20049;-68
2022/03/21 10:30:15;;;;;;;27.25;15.30;;;12.50;61.50;;;;;;5085441;28;20044;-68
2022/03/21 10:32:50;;;;;;;23.35;15.75;;;12.50;62.30;;;;;;5086682;28;20384;-68
2022/03/21 10:35:30;;;;;;;23.50;14.90;;;12.60;67.20;;;;;;5087151;28;20044;-68
2022/03/21 10:38:01;;;;;;;21.05;14.68;;;12.80;59.80;;;;;;5092442;28;20475;-68
2022/03/21 10:40:32;;;;;;;24.33;14.55;;;13.00;61.10;;;;;;5106574;28;20052;-68
2022/03/21 10:43:01;;;;;;;23.50;14.05;;;13.00;62.50;;;;;;5106746;28;20051;-68
2022/03/21 10:45:35;;;;;;;25.35;14.75;;;13.10;51.90;;;;;;5106397;28;20067;-67
2022/03/21 10:48:06;;;;;;;24.38;16.83;;;13.20;54.10;;;;;;5116599;28;20464;-67
2022/03/21 10:50:34;;;;;;;23.10;15.05;;;12.90;57.40;;;;;;5107596;28;20055;-66
2022/03/21 10:53:10;;;;;;;25.67;15.23;;;13.10;58.40;;;;;;5108323;28;20369;-66
2022/03/21 10:55:37;;;;;;;21.10;13.95;;;13.10;53.80;;;;;;5111198;28;20518;-66
2022/03/21 10:58:04;;;;;;;21.33;14.18;;;13.20;56.90;;;;;;5100913;28;20385;-67
2022/03/21 11:00:30;;;;;;;22.37;14.53;;;13.30;54.30;;;;;;5099166;28;20093;-66
2022/03/21 11:03:09;;;;;;;27.60;17.23;;;13.40;54.90;;;;;;5106903;28;20040;-66
2022/03/21 11:05:40;;;;;;;26.42;16.40;;;13.50;54.40;;;;;;5106303;28;20060;-66
2022/03/21 11:08:11;;;;;;;24.92;15.57;;;13.60;53.40;;;;;;5105338;28;20051;-66
2022/03/21 11:10:40;;;;;;;24.92;15.40;;;13.80;54.60;;;;;;5104975;28;20052;-66
2022/03/21 11:13:08;;;;;;;24.15;15.50;;;13.90;57.00;;;;;;5103138;28;20096;-64
2022/03/21 11:15:36;;;;;;;22.88;14.80;;;13.80;52.60;;;;;;5091780;28;20029;-64
2022/03/21 11:18:04;;;;;;;22.52;14.80;;;13.70;54.50;;;;;;5105716;28;20521;-64
2022/03/21 11:20:30;;;;;;;26.42;16.02;;;13.80;55.00;;;;;;5093580;28;20039;-63
2022/03/21 11:23:00;;;;;;;20.75;15.20;;;13.90;55.80;;;;;;5104977;28;20095;-63
2022/03/21 11:25:36;;;;;;;22.65;15.60;;;14.00;53.00;;;;;;5097094;28;20418;-62
2022/03/21 11:28:33;;;;;;;23.73;14.15;;;14.00;51.80;;;;;;5098784;28;20052;-67
2022/03/21 11:31:02;;;;;;;24.95;14.40;;;13.90;51.80;;;;;;5092580;28;20045;-64
2022/03/21 11:33:46;;;;;;;21.30;14.50;;;14.10;53.10;;;;;;5102174;28;20048;-63
2022/03/21 11:36:13;;;;;;;22.95;14.60;;;14.20;51.00;;;;;;5084601;28;20067;-63
2022/03/21 11:38:47;;;;;;;24.02;15.90;;;14.40;52.00;;;;;;5085432;28;20051;-64
2022/03/21 11:41:24;;;;;;;21.95;14.98;;;14.40;51.80;;;;;;5087629;28;20036;-66
2022/03/21 11:44:14;;;;;;;24.70;14.80;;;14.50;48.50;;;;;;5113644;28;20047;-64
2022/03/21 11:46:47;;;;;;;22.77;14.23;;;14.50;50.00;;;;;;5094136;28;20123;-65
2022/03/21 11:49:22;;;;;;;20.33;14.35;;;15.00;54.40;;;;;;5093108;28;20050;-65
2022/03/21 11:51:58;;;;;;;20.52;15.02;;;15.70;53.00;;;;;;5087667;28;20052;-66
2022/03/21 11:54:26;;;;;;;21.00;13.82;;;;;;;;;;5088584;28;20119;-65
2022/03/21 11:56:52;;;;;;;22.55;14.77;;;;;;;;;;5097463;28;20540;-63
2022/03/21 11:59:34;;;;;;;22.95;15.00;;;;;;;;;;5102255;28;20047;-64
2022/03/21 12:02:00;;;;;;;16.55;13.95;;;;;;;;;;5093795;28;20044;-64
2022/03/21 12:04:30;;;;;;;18.38;14.60;;;;;;;;;;5102140;28;20033;-62
2022/03/21 12:07:00;;;;;;;21.10;15.35;;;;;;;;;;5088172;28;20076;-63
2022/03/21 12:09:39;;;;;;;19.35;14.95;;;;;;;;;;5087000;28;20404;-64
2022/03/21 12:12:06;;;;;;;20.98;14.40;;;;;;;;;;5104962;28;20080;-63
2022/03/21 12:14:37;;;;;;;20.27;14.27;;;;;;;;;;5084574;28;20060;-65
2022/03/21 12:17:03;;;;;;;19.77;14.32;;;;;;;;;;5092155;28;20064;-63
2022/03/21 12:19:48;;;;;;;17.77;14.02;;;;;;;;;;5092016;28;20056;-63
2022/03/21 12:22:29;;;;;;;20.13;13.85;;;;;;;;;;5082501;28;20056;-63
2022/03/21 12:24:57;;;;;;;17.50;12.93;;;;;;;;;;5084417;28;20052;-63
2022/03/21 12:27:36;;;;;;;17.88;13.88;;;;;;;;;;5092056;28;20047;-63
2022/03/21 12:30:20;;;;;;;18.17;12.98;;;;;;;;;;5103734;28;20460;-64
2022/03/21 12:32:50;;;;;;;17.25;13.32;;;;;;;;;;5104102;28;20051;-62
2022/03/21 12:35:31;;;;;;;16.33;12.30;;;;;;;;;;5099456;28;20066;-63
2022/03/21 12:38:05;;;;;;;15.52;12.52;;;;;;;;;;5090842;28;20130;-64
2022/03/21 12:40:32;;;;;;;18.10;12.98;;;;;;;;;;5089662;28;20103;-64
2022/03/21 12:42:58;;;;;;;19.40;13.13;;;;;;;;;;5103780;28;20252;-64
2022/03/21 12:45:25;;;;;;;17.40;13.67;;;;;;;;;;5103822;28;20104;-65
2022/03/21 12:47:51;;;;;;;21.02;13.35;;;;;;;;;;5102003;28;20054;-65
2022/03/21 12:50:24;;;;;;;16.65;12.65;;;;;;;;;;5086788;28;20550;-64
2022/03/21 12:53:18;;;;;;;17.92;12.35;;;;;;;;;;5090013;28;20052;-64
2022/03/21 12:55:46;;;;;;;18.70;13.05;;;;;;;;;;5101010;28;20082;-65
2022/03/21 12:58:14;;;;;;;16.48;13.35;;;;;;;;;;5091476;28;20129;-64
2022/03/21 13:00:41;;;;;;;20.10;12.77;;;;;;;;;;5099029;28;20060;-63
2022/03/21 13:03:11;;;;;;;23.52;13.18;;;;;;;;;;5094018;28;20099;-63
2022/03/21 13:11:20;;;;;;;20.73;13.32;;;;;;;;;;5099844;28;20067;-64
2022/03/21 13:13:53;;;;;;;16.35;12.20;;;;;;;;;;5096639;28;20055;-64
2022/03/21 13:16:20;;;;;;;16.95;12.80;;;;;;;;;;5103629;28;20044;-63
2022/03/21 13:18:46;;;;;;;20.67;14.70;;;;;;;;;;5095314;28;20076;-63
2022/03/21 13:21:12;;;;;;;16.02;13.40;;;;;;;;;;5107364;28;20043;-63